createdAt,value
2022-09-17T00:04:26.565Z,98817.6
2022-09-17T00:10:02.892Z,98810.4
2022-09-17T00:15:38.324Z,98809.8
2022-09-17T00:21:13.765Z,98806.6
2022-09-17T00:26:48.987Z,98805.3
2022-09-17T00:32:46.343Z,98805
2022-09-17T00:38:19.899Z,98809.3
2022-09-17T00:43:55.464Z,98807.4
2022-09-17T00:49:30.891Z,98798.6
2022-09-17T00:55:05.711Z,98799.6
2022-09-17T01:00:42.499Z,98798.8
2022-09-17T01:06:20.050Z,98796
2022-09-17T01:11:55.235Z,98792.3
2022-09-17T01:17:30.728Z,98794.1
2022-09-17T01:23:06.451Z,98792.7
2022-09-17T01:28:41.261Z,98793.3
2022-09-17T01:34:38.736Z,98790.9
2022-09-17T01:40:13.823Z,98792.3
2022-09-17T01:45:49.012Z,98791.2
2022-09-17T01:51:24.519Z,98791.2
2022-09-17T01:56:59.651Z,98798.6
2022-09-17T02:02:34.429Z,98791.4
2022-09-17T02:08:11.240Z,98791.8
2022-09-17T02:13:47.271Z,98790.6
2022-09-17T02:19:22.127Z,98790.2
2022-09-17T02:24:57.636Z,98784.7
2022-09-17T02:30:33.090Z,98781.2
2022-09-17T02:36:08.169Z,98776.6
2022-09-17T02:41:44.367Z,98779.2
2022-09-17T02:47:19.882Z,98779.7
2022-09-17T02:52:54.955Z,98778.3
2022-09-17T02:58:30.156Z,98774.9
2022-09-17T03:04:05.610Z,98781.2
2022-09-17T03:09:40.359Z,98777.9
2022-09-17T03:15:15.620Z,98784.5
2022-09-17T03:20:51.040Z,98783.5
2022-09-17T03:26:26.861Z,98781
2022-09-17T03:32:24.040Z,98778.8
2022-09-17T03:37:57.028Z,98772.4
2022-09-17T03:43:31.635Z,98767.8
2022-09-17T03:49:07.369Z,98768
2022-09-17T03:54:43.790Z,98770.3
2022-09-17T04:00:18.476Z,98773
2022-09-17T04:05:54.086Z,98773.3
2022-09-17T04:11:29.813Z,98772.9
2022-09-17T04:17:05.534Z,98771.8
2022-09-17T04:22:42.018Z,98772.7
2022-09-17T04:28:17.157Z,98778.2
2022-09-17T04:34:13.713Z,98779.5
2022-09-17T04:39:47.262Z,98787.9
2022-09-17T04:45:23.473Z,98789.9
2022-09-17T04:50:58.230Z,98789.7
2022-09-17T04:56:33.668Z,98787.7
2022-09-17T05:02:10.283Z,98790.5
2022-09-17T05:07:45.822Z,98793.4
2022-09-17T05:13:22.219Z,98795
2022-09-17T05:18:57.642Z,98795.3
2022-09-17T05:24:32.789Z,98800.6
2022-09-17T05:30:08.634Z,98801
2022-09-17T05:35:43.986Z,98803.3
2022-09-17T05:41:18.852Z,98806.9
2022-09-17T05:46:54.466Z,98815.3
2022-09-17T05:52:31.789Z,98815.9
2022-09-17T05:58:06.661Z,98818.4
2022-09-17T06:03:42.346Z,98826.8
2022-09-17T06:09:18.635Z,98829.4
2022-09-17T06:14:54.476Z,98837.2
2022-09-17T06:20:30.301Z,98838.3
2022-09-17T06:26:06.027Z,98837.5
2022-09-17T06:32:02.966Z,98841.1
2022-09-17T06:37:36.865Z,98842.4
2022-09-17T06:43:12.339Z,98840.1
2022-09-17T06:48:47.403Z,98842.7
2022-09-17T06:54:22.969Z,98844
2022-09-17T06:59:59.126Z,98847.4
2022-09-17T07:05:34.196Z,98850.5
2022-09-17T07:11:09.375Z,98852.5
2022-09-17T07:16:45.185Z,98856
2022-09-17T07:22:22.034Z,98854.2
2022-09-17T07:27:57.614Z,98853.5
2022-09-17T07:33:54.472Z,98852.7
2022-09-17T07:39:28.191Z,98853
2022-09-17T07:45:03.779Z,98853.6
2022-09-17T07:50:39.202Z,98855.1
2022-09-17T07:56:14.365Z,98859.4
2022-09-17T08:01:51.512Z,98858
2022-09-17T08:07:28.368Z,98859.5
2022-09-17T08:13:03.204Z,98863.1
2022-09-17T08:18:38.735Z,98868.4
2022-09-17T08:24:13.887Z,98867.4
2022-09-17T08:29:48.718Z,98864.5
2022-09-17T08:35:24.226Z,98865.4
2022-09-17T08:40:59.899Z,98871.8
2022-09-17T08:46:35.114Z,98869.3
2022-09-17T08:52:11.547Z,98869.8
2022-09-17T08:57:46.989Z,98873
2022-09-17T09:03:21.814Z,98869.5
2022-09-17T09:08:58.868Z,98869.8
2022-09-17T09:14:34.286Z,98879.3
2022-09-17T09:20:10.162Z,98879.9
2022-09-17T09:25:45.579Z,98875
2022-09-17T09:31:43.315Z,98878.5
2022-09-17T09:37:16.428Z,98877.8
2022-09-17T09:42:51.537Z,98880.5
2022-09-17T09:48:27.082Z,98878.8
2022-09-17T09:54:02.124Z,98884.2
2022-09-17T09:59:37.633Z,98885.5
2022-09-17T10:05:13.297Z,98879.6
2022-09-17T10:10:49.157Z,98874.4
2022-09-17T10:16:25.131Z,98877
2022-09-17T10:22:01.524Z,98865.2
2022-09-17T10:27:36.527Z,98860.7
2022-09-17T10:33:33.793Z,98855.3
2022-09-17T10:39:06.917Z,98854.3
2022-09-17T10:44:41.783Z,98847.5
2022-09-17T10:50:17.808Z,98833.8
2022-09-17T10:55:54.469Z,98829.5
2022-09-17T11:01:30.124Z,98827.5
2022-09-17T11:07:06.600Z,98823.5
2022-09-17T11:12:42.662Z,98814.2
2022-09-17T11:18:17.422Z,98814.6
2022-09-17T11:23:53.001Z,98815.5
2022-09-17T11:29:28.448Z,98806.9
2022-09-17T11:35:03.279Z,98803.3
2022-09-17T11:40:41.765Z,98796.6
2022-09-17T11:46:20.530Z,98792.1
2022-09-17T11:51:58.215Z,98787.3
2022-09-17T11:57:34.627Z,98783.2
2022-09-17T12:03:10.756Z,98787.4
2022-09-17T12:08:46.329Z,98789.7
2022-09-17T12:14:22.678Z,98784
2022-09-17T12:19:58.412Z,98781
2022-09-17T12:25:33.333Z,98777.3
2022-09-17T12:31:09.425Z,98772.1
2022-09-17T12:36:46.053Z,98766
2022-09-17T12:42:21.492Z,98757.2
2022-09-17T12:47:57.617Z,98755.1
2022-09-17T12:53:33.011Z,98750
2022-09-17T12:59:07.875Z,98744.1
2022-09-17T13:05:02.757Z,98747.2
2022-09-17T13:10:39.803Z,98744.9
2022-09-17T13:16:20.725Z,98737.9
2022-09-17T13:21:57.162Z,98730.8
2022-09-17T13:27:34.105Z,98727
2022-09-17T13:33:09.030Z,98721.3
2022-09-17T13:38:44.781Z,98718.4
2022-09-17T13:44:20.152Z,98709.5
2022-09-17T13:49:56.527Z,98703.9
2022-09-17T13:55:32.113Z,98704.3
2022-09-17T14:01:08.398Z,98693.5
2022-09-17T14:06:43.642Z,98688
2022-09-17T14:12:20.375Z,98680
2022-09-17T14:17:56.135Z,98675.8
2022-09-17T14:23:34.965Z,98683.4
2022-09-17T14:29:11.797Z,98677.1
2022-09-17T14:34:48.004Z,98673.8
2022-09-17T14:40:24.132Z,98669.8
2022-09-17T14:46:01.759Z,98665.8
2022-09-17T14:51:37.370Z,98661
2022-09-17T14:57:12.302Z,98667.2
2022-09-17T15:02:48.538Z,98665.7
2022-09-17T15:08:24.899Z,98658.8
2022-09-17T15:13:59.741Z,98655.2
2022-09-17T15:19:35.494Z,98646.5
2022-09-17T15:25:18.048Z,98646.8
2022-09-17T15:30:52.829Z,98648.2
2022-09-17T15:36:28.346Z,98651.9
2022-09-17T15:42:04.515Z,98650.4
2022-09-17T15:47:39.571Z,98650.1
2022-09-17T15:53:15.375Z,98650.4
2022-09-17T15:58:50.795Z,98641.4
2022-09-17T16:04:26.044Z,98648.1
2022-09-17T16:10:01.461Z,98640.3
2022-09-17T16:15:37.522Z,98634.2
2022-09-17T16:21:13.235Z,98635.1
2022-09-17T16:26:48.794Z,98635.5
2022-09-17T16:32:25.123Z,98636.3
2022-09-17T16:37:59.749Z,98637.5
2022-09-17T16:43:36.119Z,98639.8
2022-09-17T16:49:11.533Z,98637.3
2022-09-17T16:54:46.443Z,98641.9
2022-09-17T17:00:21.891Z,98643.7
2022-09-17T17:05:57.085Z,98646.6
2022-09-17T17:11:32.971Z,98641.6
2022-09-17T17:17:08.308Z,98642.1
2022-09-17T17:22:44.724Z,98645.4
2022-09-17T17:28:19.380Z,98649.4
2022-09-17T17:33:55.012Z,98654.5
2022-09-17T17:39:31.934Z,98651.8
2022-09-17T17:45:06.845Z,98650.6
2022-09-17T17:50:42.335Z,98650.9
2022-09-17T17:56:17.473Z,98645.5
2022-09-17T18:01:53.277Z,98646.8
2022-09-17T18:07:30.588Z,98646.7
2022-09-17T18:13:06.132Z,98658.2
2022-09-17T18:18:45.695Z,98658.8
2022-09-17T18:24:21.289Z,98665.5
2022-09-17T18:29:57.216Z,98676.1
2022-09-17T18:35:31.926Z,98682.5
2022-09-17T18:41:07.384Z,98687.3
2022-09-17T18:46:43.399Z,98685.5
2022-09-17T18:52:18.892Z,98693.4
2022-09-17T18:57:54.396Z,98697.8
2022-09-17T19:03:29.861Z,98704.8
2022-09-17T19:09:05.247Z,98707.9
2022-09-17T19:14:40.492Z,98719.1
2022-09-17T19:20:15.914Z,98732.2
2022-09-17T19:25:52.000Z,98741.9
2022-09-17T19:31:28.215Z,98753.6
2022-09-17T19:37:04.506Z,98761.3
2022-09-17T19:42:39.361Z,98761.5
2022-09-17T19:48:15.766Z,98773.2
2022-09-17T19:53:50.955Z,98774
2022-09-17T19:59:26.855Z,98776.3
2022-09-17T20:05:02.470Z,98778.8
2022-09-17T20:10:37.831Z,98781.8
2022-09-17T20:16:13.943Z,98783.6
2022-09-17T20:21:50.442Z,98782.8
2022-09-17T20:27:27.059Z,98784.7
2022-09-17T20:33:08.744Z,98785
2022-09-17T20:39:23.405Z,98786.8
2022-09-17T20:45:01.785Z,98786.5
2022-09-17T20:50:36.759Z,98787.4
2022-09-17T20:56:12.261Z,98787.9
2022-09-17T21:01:48.372Z,98786.9
2022-09-17T21:07:23.532Z,98788.7
2022-09-17T21:12:59.384Z,98788.2
2022-09-17T21:18:40.385Z,98790.4
2022-09-17T21:24:15.069Z,98788
2022-09-17T21:29:50.399Z,98788.2
2022-09-17T21:35:27.045Z,98782.1
2022-09-17T21:41:09.802Z,98781.9
2022-09-17T21:46:45.544Z,98782.9
2022-09-17T21:52:22.156Z,98781.3
2022-09-17T21:57:56.928Z,98781.3
2022-09-17T22:03:33.348Z,98786.2
2022-09-17T22:09:08.736Z,98786.7
2022-09-17T22:14:43.767Z,98789.5
2022-09-17T22:20:19.756Z,98792.4
2022-09-17T22:25:55.116Z,98793.7
2022-09-17T22:31:52.248Z,98795.5
2022-09-17T22:37:25.920Z,98795.5
2022-09-17T22:43:01.039Z,98789.9
2022-09-17T22:48:35.786Z,98786.9
2022-09-17T22:54:12.327Z,98786.7
2022-09-17T22:59:49.097Z,98787.9
2022-09-17T23:05:24.126Z,98778.1
2022-09-17T23:10:59.951Z,98777.8
2022-09-17T23:16:36.235Z,98778.9
2022-09-17T23:22:10.908Z,98779.3
2022-09-17T23:27:46.663Z,98780.5
2022-09-17T23:33:44.205Z,98777.8
2022-09-17T23:39:16.680Z,98777.2
2022-09-17T23:44:53.030Z,98773.1
2022-09-17T23:50:28.752Z,98770.8
2022-09-17T23:56:03.462Z,98763.6
